Time;durP1;ratioP1;P1;durP2;ratioP2;P2;SDS_P1;SDS_P2;PMS_P1;PMS_P2;Temp;Humidity;BMP_temperature;BMP_pressure;BME280_temperature;BME280_humidity;BME280_pressure;Samples;Min_cycle;Max_cycle;Signal;HPM_P1;HPM_P2
2021/12/10 00:02:11;;;;;;;26.30;12.80;;;-3.00;99.90;;;-3.10;100.00;99304.31;4995945;28;114709;-75
2021/12/10 00:04:43;;;;;;;24.13;11.65;;;-3.10;99.90;;;-2.94;100.00;99292.25;4979819;28;129771;-75
2021/12/10 00:07:17;;;;;;;22.45;11.55;;;-3.00;99.90;;;-2.93;100.00;99292.03;4997548;28;130086;-76
2021/12/10 00:09:50;;;;;;;26.17;12.50;;;-3.00;99.90;;;-3.02;100.00;99293.38;4989332;28;119406;-75
2021/12/10 00:12:24;;;;;;;25.17;12.05;;;-3.10;99.90;;;-2.99;100.00;99298.25;4972606;28;114665;-75
2021/12/10 00:14:55;;;;;;;23.25;12.07;;;-3.00;99.90;;;-3.20;100.00;99288.94;4984834;28;130192;-75
2021/12/10 00:17:25;;;;;;;21.45;11.25;;;-3.00;99.90;;;-3.10;100.00;99299.00;4994329;28;130292;-76
2021/12/10 00:19:58;;;;;;;24.17;12.05;;;-3.10;99.90;;;-3.04;100.00;99295.44;4994226;28;118715;-76
2021/12/10 00:22:36;;;;;;;23.50;12.10;;;-3.10;99.90;;;-2.97;100.00;99282.88;4986468;28;115772;-76
2021/12/10 00:25:08;;;;;;;25.33;12.77;;;-3.00;99.90;;;-3.02;100.00;99285.41;4991208;28;130395;-76
2021/12/10 00:27:39;;;;;;;30.38;12.57;;;-3.00;99.90;;;-3.14;100.00;99289.88;4995561;28;129599;-75
2021/12/10 00:30:14;;;;;;;26.45;12.20;;;-3.10;99.90;;;-3.18;100.00;99280.75;4995563;28;118988;-76
2021/12/10 00:32:50;;;;;;;29.42;12.88;;;-3.10;99.90;;;-3.29;100.00;99275.19;4988610;28;115561;-76
2021/12/10 00:35:26;;;;;;;25.75;12.13;;;-3.10;99.90;;;-3.12;100.00;99266.56;4998995;28;130507;-75
2021/12/10 00:37:55;;;;;;;24.05;11.65;;;-3.10;99.90;;;-3.15;100.00;99272.34;5013998;28;131347;-77
2021/12/10 00:40:26;;;;;;;27.48;11.88;;;-3.10;99.90;;;-3.14;100.00;99260.69;4999482;28;119288;-77
2021/12/10 00:42:57;;;;;;;27.27;13.18;;;-3.10;99.90;;;-3.10;100.00;99257.34;4984806;28;116830;-74
2021/12/10 00:45:27;;;;;;;27.35;12.98;;;-3.10;99.90;;;-3.01;100.00;99263.13;4992449;28;130109;-75
2021/12/10 00:47:57;;;;;;;29.40;12.18;;;-3.00;99.90;;;-3.03;100.00;99262.56;4994859;28;129709;-75
2021/12/10 00:50:31;;;;;;;25.80;12.45;;;-3.00;99.90;;;-3.05;100.00;99251.38;5011703;28;118200;-74
2021/12/10 00:53:01;;;;;;;25.98;11.65;;;-3.00;99.90;;;-3.17;100.00;99255.84;4992188;28;115766;-75
2021/12/10 00:55:31;;;;;;;25.35;11.73;;;-3.10;99.90;;;-3.16;100.00;99252.16;5029261;27;129314;-75
2021/12/10 00:58:02;;;;;;;25.52;11.82;;;-3.00;99.90;;;-3.27;100.00;99251.09;5001619;28;130178;-75
2021/12/10 01:00:36;;;;;;;27.40;12.30;;;-3.00;99.90;;;-3.31;100.00;99250.72;5002147;28;119662;-75
2021/12/10 01:03:08;;;;;;;24.90;12.35;;;-3.00;99.90;;;-3.13;100.00;99263.13;5008160;28;114764;-75
2021/12/10 01:05:39;;;;;;;24.45;10.95;;;-3.00;99.90;;;-3.09;100.00;99252.84;4996617;28;130484;-76
2021/12/10 01:08:08;;;;;;;29.77;12.55;;;-3.00;99.90;;;-3.14;100.00;99252.72;5003630;28;129628;-75
2021/12/10 01:10:44;;;;;;;26.50;12.35;;;-3.00;99.90;;;-3.00;100.00;99251.47;4992280;28;118684;-75
2021/12/10 01:13:18;;;;;;;28.08;12.55;;;-3.00;99.90;;;-3.13;100.00;99246.34;5020602;28;115484;-75
2021/12/10 01:16:07;;;;;;;27.15;12.10;;;-3.00;99.90;;;-3.10;100.00;99240.59;4984876;28;130028;-75
2021/12/10 01:24:35;;;;;;;28.65;12.35;;;-3.00;99.90;;;-2.81;100.00;99235.44;4995177;28;116047;-75
2021/12/10 01:27:14;;;;;;;29.70;13.15;;;-2.90;99.90;;;-2.76;100.00;99238.22;5001501;28;130227;-75
2021/12/10 01:29:47;;;;;;;25.55;12.57;;;-2.90;99.90;;;-2.79;100.00;99225.41;4988512;28;129676;-75
2021/12/10 01:32:19;;;;;;;28.27;13.13;;;-2.90;99.90;;;-2.82;100.00;99221.38;4997960;28;118879;-75
2021/12/10 01:34:48;;;;;;;25.38;12.13;;;-2.90;99.90;;;-2.75;100.00;99222.03;4994260;28;114678;-76
2021/12/10 01:37:17;;;;;;;23.30;11.48;;;-2.90;99.90;;;-2.82;100.00;99215.22;5008507;28;130426;-76
2021/12/10 01:39:46;;;;;;;24.65;13.10;;;-2.90;99.90;;;-3.10;100.00;99208.72;5016243;28;130697;-76
2021/12/10 01:42:30;;;;;;;27.38;12.45;;;-2.90;99.90;;;-2.93;100.00;99220.31;4992088;28;119429;-76
2021/12/10 01:45:07;;;;;;;27.67;12.20;;;-2.90;99.90;;;-2.91;100.00;99218.25;4992584;28;115779;-75
2021/12/10 01:47:38;;;;;;;25.63;12.82;;;-2.90;99.90;;;-2.90;100.00;99219.88;4988312;28;129189;-75
2021/12/10 01:50:09;;;;;;;31.38;12.48;;;-2.80;99.90;;;-2.89;100.00;99210.84;4996084;28;129027;-75
2021/12/10 01:52:38;;;;;;;26.27;12.23;;;-2.90;99.90;;;-2.92;100.00;99195.38;5029798;28;117919;-76
2021/12/10 01:55:09;;;;;;;28.85;12.00;;;-2.80;99.90;;;-2.95;100.00;99205.66;5022109;28;116318;-75
2021/12/10 01:57:39;;;;;;;22.70;11.43;;;-2.80;99.90;;;-2.95;100.00;99195.81;5003999;28;130854;-75
2021/12/10 02:00:13;;;;;;;25.10;12.77;;;-2.80;99.90;;;-2.81;100.00;99190.31;4987549;28;129782;-75
2021/12/10 02:02:46;;;;;;;27.05;12.80;;;-2.80;99.90;;;-2.77;100.00;99191.47;4989105;28;118993;-75
2021/12/10 02:05:16;;;;;;;25.63;11.57;;;-2.80;99.90;;;-2.69;100.00;99191.09;4995125;28;115916;-75
2021/12/10 02:07:47;;;;;;;26.33;11.90;;;-2.80;99.90;;;-2.68;100.00;99195.38;4991400;28;129565;-75
2021/12/10 02:10:21;;;;;;;29.40;12.82;;;-2.70;99.90;;;-2.67;100.00;99191.66;4998614;28;129567;-75
2021/12/10 02:12:50;;;;;;;22.50;11.80;;;-2.70;99.90;;;-2.77;100.00;99188.81;4997819;28;118422;-75
2021/12/10 02:15:22;;;;;;;25.10;11.40;;;-2.70;99.90;;;-2.78;100.00;99184.53;4970276;28;115124;-75
2021/12/10 02:17:53;;;;;;;28.83;11.88;;;-2.70;99.90;;;-2.84;100.00;99185.44;4990606;28;130421;-75
2021/12/10 02:20:31;;;;;;;27.40;12.82;;;-2.70;99.90;;;-2.69;100.00;99185.78;4999937;28;130242;-75
2021/12/10 02:23:05;;;;;;;26.38;12.30;;;-2.70;99.90;;;-2.70;100.00;99184.16;4995722;28;119346;-75
2021/12/10 02:25:37;;;;;;;29.20;11.75;;;-2.70;99.90;;;-2.62;100.00;99178.50;4995863;28;114471;-76
2021/12/10 02:28:10;;;;;;;21.40;11.00;;;-2.60;99.90;;;-2.90;100.00;99172.06;4992185;28;130448;-75
2021/12/10 02:30:40;;;;;;;26.40;12.52;;;-2.60;99.90;;;-2.87;100.00;99176.09;4996541;28;129749;-75
2021/12/10 02:33:10;;;;;;;26.25;12.70;;;-2.60;99.90;;;-2.70;100.00;99181.50;4998108;28;118775;-76
2021/12/10 02:35:39;;;;;;;25.90;11.73;;;-2.60;99.90;;;-2.62;100.00;99180.34;4990792;28;115726;-76
2021/12/10 02:38:10;;;;;;;26.73;11.13;;;-2.60;99.90;;;-2.62;100.00;99178.50;4990043;28;129938;-76
2021/12/10 02:40:40;;;;;;;24.50;11.00;;;-2.60;99.90;;;-2.67;100.00;99175.72;5003678;28;129589;-75
2021/12/10 02:43:13;;;;;;;23.35;11.38;;;-2.60;99.90;;;-2.69;100.00;99177.81;4989061;28;118402;-75
2021/12/10 02:45:46;;;;;;;24.52;11.63;;;-2.60;99.90;;;-2.72;100.00;99172.97;4993862;28;115466;-75
2021/12/10 02:48:15;;;;;;;22.10;11.15;;;-2.50;99.90;;;-2.97;100.00;99160.72;4986905;28;129911;-76
2021/12/10 02:50:50;;;;;;;27.65;12.38;;;-2.60;99.90;;;-2.72;100.00;99162.34;4997519;28;131164;-76
2021/12/10 02:53:26;;;;;;;26.27;11.88;;;-2.60;99.90;;;-2.62;100.00;99156.44;4996201;28;118660;-76
2021/12/10 02:56:01;;;;;;;26.43;12.97;;;-2.50;99.90;;;-2.56;100.00;99153.66;5006190;28;114920;-76
2021/12/10 02:58:30;;;;;;;27.83;12.70;;;-2.50;99.90;;;-2.67;100.00;99151.81;4986554;28;130553;-76
2021/12/10 03:01:07;;;;;;;24.17;11.32;;;-2.50;99.90;;;-2.60;100.00;99147.19;4992925;28;130281;-76
2021/12/10 03:03:41;;;;;;;25.05;11.25;;;-2.50;99.90;;;-2.45;100.00;99161.84;4995558;28;118442;-76
2021/12/10 03:06:11;;;;;;;30.15;11.90;;;-2.50;99.90;;;-2.37;100.00;99148.19;4992092;28;116129;-76
2021/12/10 03:08:47;;;;;;;26.92;11.43;;;-2.40;99.90;;;-2.30;100.00;99153.38;4996514;28;129734;-76
2021/12/10 03:11:20;;;;;;;25.65;12.30;;;-2.40;99.90;;;-2.32;100.00;99145.66;4993297;28;129446;-75
2021/12/10 03:13:50;;;;;;;23.60;11.82;;;-2.40;99.90;;;-2.25;100.00;99151.63;4983616;28;119371;-75
2021/12/10 03:16:19;;;;;;;22.25;11.43;;;-2.40;99.90;;;-2.21;100.00;99162.59;5000919;28;115986;-74
2021/12/10 03:18:48;;;;;;;25.17;10.80;;;-2.30;99.90;;;-2.27;100.00;99164.34;5000325;28;129389;-73
2021/12/10 03:21:19;;;;;;;24.58;12.10;;;-2.40;99.90;;;-2.28;100.00;99162.72;4997973;28;130650;-75
2021/12/10 03:23:50;;;;;;;25.27;12.05;;;-2.30;99.90;;;-2.28;100.00;99157.41;5002007;28;118708;-75
2021/12/10 03:26:22;;;;;;;22.73;10.82;;;-2.30;99.90;;;-2.27;100.00;99164.34;4992822;28;115933;-75
2021/12/10 03:28:54;;;;;;;24.42;12.20;;;-2.30;99.90;;;-2.32;100.00;99156.28;5004378;28;129717;-75
2021/12/10 03:31:27;;;;;;;21.17;10.40;;;-2.30;99.90;;;-2.28;100.00;99149.44;4994784;28;129810;-75
2021/12/10 03:33:58;;;;;;;21.38;11.30;;;-2.30;99.90;;;-2.32;100.00;99161.59;4980253;28;118799;-75
2021/12/10 03:36:28;;;;;;;23.30;11.13;;;-2.20;99.90;;;-2.15;100.00;99150.22;5000438;28;115646;-76
2021/12/10 03:38:59;;;;;;;21.35;10.23;;;-2.20;99.90;;;-2.14;100.00;99141.19;5003296;28;129993;-75
2021/12/10 03:41:27;;;;;;;24.17;11.48;;;-2.20;99.90;;;-2.15;100.00;99136.91;4995594;28;129708;-75
2021/12/10 03:43:56;;;;;;;22.25;11.27;;;-2.20;99.90;;;-2.18;100.00;99131.03;4987989;28;118912;-75
2021/12/10 03:46:26;;;;;;;22.25;11.73;;;-2.20;99.90;;;-2.20;100.00;99127.81;4989947;28;115909;-75
2021/12/10 03:48:55;;;;;;;24.13;11.35;;;-2.20;99.90;;;-2.19;100.00;99124.09;4998385;28;129779;-76
2021/12/10 03:51:26;;;;;;;23.40;11.70;;;-2.20;99.90;;;-2.18;100.00;99124.91;4989080;28;129268;-75
2021/12/10 03:53:55;;;;;;;24.58;11.10;;;-2.20;99.90;;;-2.15;100.00;99134.25;4985626;28;118867;-74
2021/12/10 03:56:29;;;;;;;21.95;10.73;;;-2.10;99.90;;;-2.20;100.00;99127.81;4986658;28;116173;-75
2021/12/10 03:59:02;;;;;;;16.88;9.73;;;-2.10;99.90;;;-2.08;100.00;99114.44;4997965;28;130008;-74
2021/12/10 04:01:35;;;;;;;22.17;10.40;;;-2.10;99.90;;;-2.17;100.00;99116.69;4994836;28;130082;-74
2021/12/10 04:04:09;;;;;;;18.85;9.52;;;-2.10;99.90;;;-2.13;100.00;99110.91;5003336;28;118941;-75
2021/12/10 04:06:39;;;;;;;23.15;9.93;;;-2.10;99.90;;;-2.08;100.00;99113.66;4993862;28;115861;-75
2021/12/10 04:09:09;;;;;;;20.67;10.23;;;-2.10;99.90;;;-2.02;100.00;99107.38;4988140;28;130174;-76
2021/12/10 04:11:39;;;;;;;18.15;9.20;;;-2.10;99.90;;;-2.05;100.00;99108.66;4991756;28;131820;-76
2021/12/10 04:14:09;;;;;;;16.65;9.18;;;-2.00;99.90;;;-2.04;100.00;99106.81;4985914;28;118527;-77
2021/12/10 04:16:38;;;;;;;16.80;8.80;;;-2.00;99.90;;;-2.10;100.00;99115.72;4997790;28;115421;-76
2021/12/10 04:19:10;;;;;;;18.10;10.10;;;-2.00;99.90;;;-1.99;100.00;99112.22;4988863;28;129919;-76
2021/12/10 04:21:41;;;;;;;18.63;9.23;;;-2.00;99.90;;;-2.05;100.00;99108.66;4995691;28;129518;-77
2021/12/10 04:24:14;;;;;;;17.35;9.50;;;-2.00;99.90;;;-2.03;100.00;99098.59;4997853;28;118743;-78
2021/12/10 04:26:44;;;;;;;20.10;9.50;;;-2.00;99.90;;;-2.09;100.00;99109.38;4976223;28;115164;-76
2021/12/10 04:29:13;;;;;;;18.17;10.05;;;-2.00;99.90;;;-2.02;100.00;99102.06;4985945;28;129757;-76
2021/12/10 04:31:42;;;;;;;24.83;10.23;;;-2.00;99.90;;;-1.88;100.00;99097.25;4992537;28;129616;-77
2021/12/10 04:34:12;;;;;;;25.25;11.68;;;-1.90;99.90;;;-1.88;100.00;99092.75;4992053;28;118813;-79
2021/12/10 04:36:40;;;;;;;17.38;9.02;;;-1.90;99.90;;;-1.82;100.00;99097.09;4988166;28;116068;-78
2021/12/10 04:39:12;;;;;;;19.00;9.82;;;-1.90;99.90;;;-1.84;100.00;99087.75;4996766;28;130070;-78
2021/12/10 04:41:41;;;;;;;18.10;9.73;;;-1.90;99.90;;;-1.81;100.00;99090.75;4992437;28;129802;-83
2021/12/10 04:44:13;;;;;;;20.85;10.43;;;-1.90;99.90;;;-1.84;100.00;99093.88;4977636;28;117666;-80
2021/12/10 04:46:48;;;;;;;19.17;10.52;;;-1.90;99.90;;;-1.77;100.00;99098.25;4980771;28;115464;-80
2021/12/10 04:49:18;;;;;;;22.08;10.57;;;-1.90;99.90;;;-1.76;100.00;99089.19;4991830;28;129937;-80
2021/12/10 04:51:51;;;;;;;24.27;11.65;;;-1.80;99.90;;;-1.74;100.00;99087.94;4991539;28;129481;-80
2021/12/10 04:54:26;;;;;;;20.70;10.15;;;-1.80;99.90;;;-1.73;100.00;99094.03;4995133;28;118958;-80
2021/12/10 04:56:58;;;;;;;25.52;12.30;;;-1.80;99.90;;;-1.81;100.00;99098.72;4991124;28;116158;-81
2021/12/10 04:59:33;;;;;;;26.75;12.85;;;-1.80;99.90;;;-1.81;100.00;99098.72;5008861;28;128349;-80
2021/12/10 05:02:12;;;;;;;27.67;11.80;;;-1.80;99.90;;;-1.74;100.00;99095.09;4987174;28;129534;-80
2021/12/10 05:04:45;;;;;;;21.98;11.18;;;-1.80;99.90;;;-1.68;100.00;99091.50;5004398;28;118508;-81
2021/12/10 05:07:15;;;;;;;22.67;12.25;;;-1.80;99.90;;;-1.67;100.00;99098.41;5011838;28;115556;-81
2021/12/10 05:09:44;;;;;;;22.83;11.60;;;-1.80;99.90;;;-1.58;100.00;99090.84;4992176;28;129827;-81
2021/12/10 05:12:14;;;;;;;24.25;11.55;;;-1.70;99.90;;;-1.74;100.00;99097.78;4998015;28;129767;-80
2021/12/10 05:15:22;;;;;;;22.67;11.25;;;-1.70;99.90;;;-1.83;100.00;99079.53;5009588;28;116324;-80
2021/12/10 05:17:54;;;;;;;19.30;10.57;;;-1.70;99.90;;;-1.85;100.00;99084.28;4943966;28;116043;-80
2021/12/10 05:20:27;;;;;;;24.10;10.88;;;-1.80;99.90;;;-1.84;100.00;99083.25;4963714;28;128894;-79
2021/12/10 05:22:57;;;;;;;23.45;12.00;;;-1.70;99.90;;;-1.77;100.00;99082.28;4937154;28;129111;-79
2021/12/10 05:25:28;;;;;;;25.60;11.55;;;-1.70;99.90;;;-1.76;100.00;99091.84;4968175;28;119004;-81
2021/12/10 05:27:59;;;;;;;22.40;10.98;;;-1.70;99.90;;;-1.75;100.00;99088.16;4953454;28;115264;-79
2021/12/10 05:30:32;;;;;;;25.17;12.82;;;-1.70;99.90;;;-1.70;100.00;99089.06;4948118;28;128870;-79
2021/12/10 05:33:02;;;;;;;27.83;12.05;;;-1.70;99.90;;;-1.74;100.00;99076.47;4954606;28;129767;-80
2021/12/10 05:35:33;;;;;;;19.95;10.75;;;-1.70;99.90;;;-1.63;100.00;99084.38;4934392;28;118463;-78
2021/12/10 05:38:02;;;;;;;24.00;11.05;;;-1.60;99.90;;;-1.58;100.00;99090.84;4957744;28;115983;-80
2021/12/10 05:40:31;;;;;;;20.90;10.55;;;-1.60;99.90;;;-1.70;100.00;99086.41;4946731;28;130114;-78
2021/12/10 05:42:59;;;;;;;22.95;10.98;;;-1.60;99.90;;;-1.73;100.00;99078.06;4947739;28;128769;-79
2021/12/10 05:45:30;;;;;;;23.95;11.57;;;-1.60;99.90;;;-1.66;100.00;99089.38;4960564;28;118710;-80
2021/12/10 05:47:59;;;;;;;24.00;11.80;;;-1.60;99.90;;;-1.73;100.00;99084.22;4935378;28;115257;-80
2021/12/10 05:50:30;;;;;;;25.35;11.48;;;-1.60;99.90;;;-1.65;100.00;99081.16;5002002;28;131115;-80
2021/12/10 05:53:00;;;;;;;19.67;11.05;;;-1.60;99.90;;;-1.60;100.00;99087.63;5002893;28;129953;-80
2021/12/10 05:55:29;;;;;;;24.17;12.50;;;-1.60;99.90;;;-1.56;100.00;99078.09;5003827;28;118815;-80
2021/12/10 05:57:58;;;;;;;24.65;11.32;;;-1.60;99.90;;;-1.61;100.00;99076.16;5003636;28;116237;-79
2021/12/10 06:00:32;;;;;;;24.95;11.40;;;-1.60;99.90;;;-1.69;100.00;99084.53;5001846;28;130616;-80
2021/12/10 06:03:02;;;;;;;23.00;11.50;;;-1.60;99.90;;;-1.79;100.00;99085.19;5003024;28;129695;-79
2021/12/10 06:05:33;;;;;;;24.17;11.98;;;-1.50;99.90;;;-1.81;100.00;99076.63;5001190;28;118635;-80
2021/12/10 06:08:03;;;;;;;21.25;11.18;;;-1.60;99.90;;;-1.65;100.00;99075.03;4996991;28;115729;-80
2021/12/10 06:10:32;;;;;;;25.70;12.27;;;-1.50;99.90;;;-1.66;100.00;99084.06;5001133;28;130443;-80
2021/12/10 06:13:01;;;;;;;23.38;11.73;;;-1.50;99.90;;;-1.63;100.00;99072.94;5021729;28;129631;-80
2021/12/10 06:15:31;;;;;;;23.63;11.65;;;-1.50;99.90;;;-1.59;100.00;99074.06;5002153;28;118930;-80
2021/12/10 06:18:00;;;;;;;30.35;11.68;;;-1.50;99.90;;;-1.57;100.00;99066.66;4984462;28;116035;-80
2021/12/10 06:20:32;;;;;;;22.65;11.07;;;-1.50;99.90;;;-1.49;100.00;99073.41;5001517;28;130097;-79
2021/12/10 06:23:01;;;;;;;23.20;11.90;;;-1.50;99.90;;;-1.46;100.00;99072.94;5003464;28;129674;-80
2021/12/10 06:25:31;;;;;;;23.90;11.32;;;-1.40;99.90;;;-1.46;100.00;99078.25;5001919;28;119093;-81
2021/12/10 06:28:02;;;;;;;28.20;11.90;;;-1.40;99.90;;;-1.39;100.00;99068.22;5001578;28;115970;-82
2021/12/10 06:30:39;;;;;;;28.38;12.57;;;-1.40;99.90;;;-1.45;100.00;99075.34;4988569;28;129713;-81
2021/12/10 06:33:17;;;;;;;23.50;11.43;;;-1.40;99.90;;;-1.46;100.00;99073.72;4999407;28;129622;-81
2021/12/10 06:35:49;;;;;;;23.80;11.32;;;-1.40;99.90;;;-1.39;100.00;99078.09;4981933;28;118388;-81
2021/12/10 06:38:19;;;;;;;24.27;11.77;;;-1.40;99.90;;;-1.34;100.00;99070.16;4981140;28;115189;-81
2021/12/10 06:40:48;;;;;;;24.17;11.50;;;-1.30;99.90;;;-1.26;100.00;99067.13;4985822;28;129934;-81
2021/12/10 06:43:18;;;;;;;25.20;12.20;;;-1.30;99.90;;;-1.30;100.00;99060.66;4969982;28;129151;-81
2021/12/10 06:45:49;;;;;;;22.42;11.18;;;-1.30;99.90;;;-1.36;100.00;99066.94;4998864;28;118864;-81
2021/12/10 06:48:21;;;;;;;22.02;11.07;;;-1.30;99.90;;;-1.35;100.00;99057.94;4992845;28;115069;-81
2021/12/10 06:50:54;;;;;;;24.88;12.65;;;-1.30;99.90;;;-1.39;100.00;99059.44;4993697;28;130068;-80
2021/12/10 06:53:26;;;;;;;24.25;10.60;;;-1.30;99.90;;;-1.34;100.00;99065.66;4999062;28;130319;-81
2021/12/10 06:55:59;;;;;;;22.35;11.02;;;-1.30;99.90;;;-1.28;100.00;99053.22;5002540;28;118741;-82
2021/12/10 06:58:31;;;;;;;24.55;11.95;;;-1.20;99.90;;;-1.17;100.00;99073.63;4996855;28;115231;-80
2021/12/10 07:01:06;;;;;;;25.40;12.43;;;-1.20;99.90;;;-1.04;100.00;99064.50;4970242;28;129024;-80
2021/12/10 07:03:35;;;;;;;23.73;11.05;;;-1.10;99.90;;;-1.06;100.00;99061.28;4972986;28;127766;-81
2021/12/10 07:06:07;;;;;;;23.27;11.23;;;-1.10;99.90;;;-0.95;100.00;99048.88;4988798;28;118451;-82
2021/12/10 07:08:40;;;;;;;30.52;12.70;;;-1.10;99.90;;;-0.91;100.00;99052.66;4979517;28;115527;-81
2021/12/10 07:11:11;;;;;;;27.58;12.63;;;-1.00;99.90;;;-0.84;100.00;99047.16;4997024;28;129931;-81
2021/12/10 07:13:43;;;;;;;27.73;12.75;;;-1.00;99.90;;;-1.02;100.00;99043.72;5001762;28;129579;-81
2021/12/10 07:16:13;;;;;;;25.10;13.18;;;-1.00;99.90;;;-0.98;100.00;99044.03;4985393;28;118842;-81
2021/12/10 07:18:43;;;;;;;27.50;12.93;;;-1.00;99.90;;;-0.86;100.00;99042.06;4998098;28;114598;-82
2021/12/10 07:21:12;;;;;;;23.67;12.48;;;-1.00;99.90;;;-0.92;100.00;99048.38;5005378;28;129914;-82
2021/12/10 07:23:42;;;;;;;24.08;11.88;;;-1.00;99.90;;;-0.87;100.00;99042.31;5002597;28;130338;-82
2021/12/10 07:26:24;;;;;;;22.35;12.30;;;-1.00;99.90;;;-0.89;100.00;99039.91;5012143;28;118325;-80
2021/12/10 07:28:52;;;;;;;21.67;11.15;;;-0.90;99.90;;;-0.84;100.00;99050.63;4998535;28;115747;-82
2021/12/10 07:31:23;;;;;;;25.13;10.63;;;-0.90;99.90;;;-0.76;100.00;99052.84;4992810;28;129755;-82
2021/12/10 07:33:51;;;;;;;26.05;11.82;;;-0.90;99.90;;;-0.97;100.00;99049.13;5001652;28;129017;-81
2021/12/10 07:36:21;;;;;;;25.83;10.65;;;-0.90;99.90;;;-0.85;100.00;99046.34;4968887;28;118768;-81
2021/12/10 07:38:50;;;;;;;26.50;12.95;;;-0.80;99.90;;;-0.81;100.00;99060.81;4993271;28;115680;-83
2021/12/10 07:41:19;;;;;;;26.58;12.05;;;-0.80;99.90;;;-0.66;100.00;99060.16;4993786;28;130217;-83
2021/12/10 07:43:48;;;;;;;26.67;11.90;;;-0.80;99.90;;;-0.61;100.00;99054.09;4983889;28;129345;-83
2021/12/10 07:46:17;;;;;;;19.35;10.50;;;-0.80;99.90;;;-0.56;100.00;99048.84;4993891;28;118758;-81
2021/12/10 07:48:49;;;;;;;23.15;10.90;;;-0.70;99.90;;;-0.54;100.00;99054.72;4986022;28;114422;-81
2021/12/10 07:51:21;;;;;;;25.58;11.95;;;-0.70;99.90;;;-0.70;100.00;99043.06;5018204;28;129802;-81
2021/12/10 07:54:02;;;;;;;29.08;11.38;;;-0.70;99.90;;;-0.59;100.00;99044.00;4987871;28;129382;-80
2021/12/10 07:56:33;;;;;;;25.08;11.18;;;-0.70;99.90;;;-0.57;100.00;99041.88;4988587;28;118530;-80
2021/12/10 07:59:02;;;;;;;22.98;11.13;;;-0.60;99.90;;;-0.50;100.00;99041.69;4993869;28;115911;-81
2021/12/10 08:01:33;;;;;;;24.92;11.73;;;-0.60;99.90;;;-0.42;100.00;99028.72;4972654;28;129044;-81
2021/12/10 08:04:06;;;;;;;22.80;10.88;;;-0.60;99.90;;;-0.35;100.00;99030.41;5005978;28;128475;-80
2021/12/10 08:06:37;;;;;;;24.60;11.20;;;-0.60;99.90;;;-0.48;100.00;99028.91;4995795;28;118215;-82
2021/12/10 08:09:08;;;;;;;23.45;10.85;;;-0.60;99.90;;;-0.46;100.00;99027.59;4996686;28;115811;-81
2021/12/10 08:11:39;;;;;;;26.98;11.90;;;-0.50;99.90;;;-0.51;100.00;99024.91;4979680;28;129318;-80
2021/12/10 08:14:08;;;;;;;26.58;12.77;;;-0.50;99.90;;;-0.44;100.00;99009.50;4996658;28;129677;-81
2021/12/10 08:16:39;;;;;;;23.83;11.52;;;-0.50;99.90;;;-0.38;100.00;99016.47;5002580;28;117842;-82
2021/12/10 08:19:10;;;;;;;22.13;11.80;;;-0.40;99.90;;;-0.35;100.00;99019.72;5008879;28;115519;-80
2021/12/10 08:21:39;;;;;;;25.98;12.23;;;-0.40;99.90;;;-0.46;100.00;99024.94;4998023;28;128611;-80
2021/12/10 08:24:08;;;;;;;30.08;12.35;;;-0.40;99.90;;;-0.24;100.00;99021.44;4973555;28;129069;-81
2021/12/10 08:26:38;;;;;;;23.95;11.05;;;-0.30;99.90;;;-0.24;100.00;99018.75;5003446;28;118854;-79
2021/12/10 08:29:08;;;;;;;28.05;12.00;;;-0.30;99.90;;;-0.13;100.00;99017.78;4976778;28;115540;-80
2021/12/10 08:31:38;;;;;;;23.85;11.65;;;-0.30;99.90;;;-0.01;100.00;99013.09;4994926;28;129253;-80
2021/12/10 08:34:09;;;;;;;25.52;12.60;;;-0.20;99.90;;;0.03;100.00;99009.94;4979019;28;127609;-83
2021/12/10 08:36:40;;;;;;;25.42;12.00;;;-0.20;99.90;;;-0.17;100.00;99002.56;5009021;28;118498;-80
2021/12/10 08:39:11;;;;;;;24.58;12.15;;;-0.20;99.90;;;0.07;100.00;99003.03;5008783;28;115966;-80
2021/12/10 08:41:42;;;;;;;26.30;12.13;;;-0.10;99.90;;;0.13;100.00;99018.03;4994528;28;129778;-81
2021/12/10 08:44:13;;;;;;;19.95;10.95;;;-0.10;99.90;;;0.25;100.00;99015.19;4995124;28;130346;-81
2021/12/10 08:46:44;;;;;;;26.52;11.10;;;0.00;99.90;;;0.30;100.00;99018.69;4988618;28;118735;-80
2021/12/10 08:49:16;;;;;;;29.42;12.43;;;0.00;99.90;;;0.07;100.00;98997.69;4988462;28;114607;-81
2021/12/10 08:51:50;;;;;;;22.17;10.80;;;0.00;99.90;;;0.29;100.00;98997.59;4995801;28;130100;-80
2021/12/10 08:54:21;;;;;;;24.67;11.85;;;0.00;99.90;;;0.33;100.00;98991.50;4997343;28;130465;-82
2021/12/10 08:56:49;;;;;;;24.40;11.68;;;0.00;99.90;;;0.25;100.00;98983.16;4993000;28;118187;-81
2021/12/10 08:59:21;;;;;;;27.55;12.57;;;0.00;99.90;;;0.14;100.00;98988.44;5016818;28;114826;-80
2021/12/10 09:01:54;;;;;;;23.70;12.32;;;0.00;99.90;;;0.09;100.00;98991.03;5004518;28;130109;-82
2021/12/10 09:04:26;;;;;;;29.23;13.23;;;0.00;99.90;;;0.13;100.00;98992.16;5000716;28;129532;-81
2021/12/10 09:07:02;;;;;;;25.02;12.40;;;0.00;99.90;;;0.22;100.00;98984.47;4997553;28;119079;-82
2021/12/10 09:09:32;;;;;;;28.27;12.33;;;0.10;99.90;;;0.31;100.00;98987.47;4981488;28;115090;-81
2021/12/10 09:12:07;;;;;;;24.88;11.57;;;0.20;99.90;;;0.27;100.00;98997.06;4992974;28;130528;-82
2021/12/10 09:14:41;;;;;;;23.25;11.00;;;0.10;99.90;;;0.28;100.00;98986.13;4989843;28;129450;-82
2021/12/10 09:17:12;;;;;;;25.65;11.38;;;0.20;99.90;;;0.47;100.00;98991.06;5019915;28;118899;-82
2021/12/10 09:19:43;;;;;;;25.25;11.45;;;0.30;99.90;;;0.59;100.00;98982.84;4995915;28;114798;-80
2021/12/10 09:22:13;;;;;;;23.83;11.18;;;0.30;99.90;;;0.63;100.00;98979.41;4996900;28;129816;-81
2021/12/10 09:24:43;;;;;;;21.63;10.43;;;0.40;99.90;;;0.74;100.00;98984.81;4987105;28;130321;-81
2021/12/10 09:27:14;;;;;;;21.95;10.98;;;0.40;99.90;;;0.82;100.00;98976.28;4988026;28;118140;-81
2021/12/10 09:29:47;;;;;;;24.05;10.80;;;0.50;99.90;;;0.63;100.00;98978.59;5003308;28;115184;-81
2021/12/10 09:32:20;;;;;;;23.80;10.68;;;0.50;99.90;;;0.58;100.00;98984.72;4996495;28;129699;-82
2021/12/10 09:34:51;;;;;;;21.40;10.75;;;0.50;99.90;;;0.73;100.00;98989.31;4961487;28;128638;-81
2021/12/10 09:37:23;;;;;;;18.00;9.48;;;0.50;99.90;;;0.71;100.00;98981.56;4977184;28;118388;-84
2021/12/10 09:39:54;;;;;;;19.83;10.57;;;0.50;99.90;;;0.87;100.00;98984.31;4992939;28;115222;-84
2021/12/10 09:42:23;;;;;;;20.83;11.27;;;0.60;99.90;;;0.71;100.00;98970.88;5005583;28;128824;-83
2021/12/10 09:44:54;;;;;;;25.17;12.02;;;0.50;99.90;;;0.82;100.00;98976.28;5006898;28;129411;-84
2021/12/10 09:47:23;;;;;;;23.02;11.98;;;0.60;99.90;;;0.85;100.00;98986.47;5002405;28;118341;-80
2021/12/10 09:49:56;;;;;;;21.45;10.43;;;0.60;99.90;;;0.88;100.00;98988.63;4988175;28;114888;-82
2021/12/10 09:52:27;;;;;;;21.75;11.73;;;0.70;99.90;;;0.85;100.00;98981.91;5001962;28;130319;-80
2021/12/10 09:54:56;;;;;;;24.65;12.77;;;0.70;99.90;;;0.99;100.00;98987.59;4998399;28;129772;-81
2021/12/10 09:57:28;;;;;;;19.02;10.20;;;0.70;99.90;;;0.97;100.00;98983.59;4993980;28;119233;-81
2021/12/10 10:00:01;;;;;;;19.33;10.20;;;0.70;99.90;;;0.91;100.00;98982.75;5004554;28;115434;-81
2021/12/10 10:02:32;;;;;;;22.73;11.13;;;0.70;99.90;;;0.77;100.00;98985.09;4985182;28;130336;-80
2021/12/10 10:05:04;;;;;;;21.75;11.32;;;0.70;99.90;;;0.96;100.00;98976.63;5000013;28;129800;-80
2021/12/10 10:07:33;;;;;;;24.10;11.20;;;0.70;99.90;;;0.94;100.00;98974.22;4997951;28;119297;-81
2021/12/10 10:10:07;;;;;;;20.80;10.82;;;0.80;99.90;;;1.02;100.00;98981.72;4999291;28;115962;-81
2021/12/10 10:12:41;;;;;;;19.27;11.10;;;0.80;99.90;;;1.07;100.00;98973.72;5003663;28;129788;-77
2021/12/10 10:15:14;;;;;;;23.27;10.30;;;0.80;99.90;;;1.21;100.00;98973.25;4992323;28;129601;-77
2021/12/10 10:17:43;;;;;;;20.38;10.15;;;0.90;99.90;;;1.30;100.00;98957.50;4985187;28;118339;-78
2021/12/10 10:20:18;;;;;;;21.95;11.85;;;1.00;99.90;;;1.38;100.00;98962.31;4998807;28;115834;-75